Time;durP1;ratioP1;P1;durP2;ratioP2;P2;SDS_P1;SDS_P2;PMS_P1;PMS_P2;Temp;Humidity;BMP_temperature;BMP_pressure;BME280_temperature;BME280_humidity;BME280_pressure;Samples;Min_cycle;Max_cycle;Signal;HPM_P1;HPM_P2
2022/12/31 00:01:18;;;;;;;10.48;6.63;;;;;;;11.51;100.00;100203.41;5052817;28;20555;-45
2022/12/31 00:03:43;;;;;;;10.60;6.93;;;;;;;11.49;100.00;100205.13;5050973;28;20021;-48
2022/12/31 00:06:20;;;;;;;9.88;7.05;;;;;;;11.48;100.00;100210.25;5052260;28;20035;-47
2022/12/31 00:08:46;;;;;;;15.43;10.88;;;;;;;11.49;100.00;100212.84;5052908;28;20059;-48
2022/12/31 00:11:13;;;;;;;12.10;9.50;;;;;;;11.49;100.00;100207.69;5053007;28;20021;-48
2022/12/31 00:13:38;;;;;;;15.02;11.88;;;;;;;11.48;100.00;100211.13;5051807;28;20047;-48
2022/12/31 00:16:12;;;;;;;13.90;7.60;;;;;;;11.48;100.00;100213.69;5052795;28;20357;-48
2022/12/31 00:18:38;;;;;;;10.05;7.78;;;;;;;11.47;100.00;100214.53;5052716;28;20029;-49
2022/12/31 00:21:05;;;;;;;13.35;10.20;;;;;;;11.49;100.00;100212.84;5052090;28;20017;-48
2022/12/31 00:23:30;;;;;;;12.43;8.40;;;;;;;11.51;100.00;100211.16;5052380;28;20464;-49
2022/12/31 00:26:00;;;;;;;11.32;9.05;;;;;;;11.51;100.00;100210.28;5052650;28;20033;-46
2022/12/31 00:28:25;;;;;;;22.52;10.98;;;;;;;11.52;100.00;100207.72;5052021;28;20036;-47
2022/12/31 00:30:50;;;;;;;11.40;8.82;;;;;;;11.52;100.00;100212.91;5052390;28;20029;-49
2022/12/31 00:33:16;;;;;;;16.08;10.23;;;;;;;11.50;100.00;100209.44;5052846;28;20032;-50
2022/12/31 00:35:41;;;;;;;18.92;10.85;;;;;;;11.52;100.00;100207.72;5051640;28;20023;-47
2022/12/31 00:38:06;;;;;;;17.48;13.05;;;;;;;11.48;100.00;100193.06;5052686;28;20150;-50
2022/12/31 00:40:32;;;;;;;13.45;7.60;;;;;;;11.49;100.00;100196.50;5052176;28;20112;-49
2022/12/31 00:42:57;;;;;;;19.20;12.90;;;;;;;11.48;100.00;100195.63;5051709;28;20082;-48
2022/12/31 00:45:22;;;;;;;11.18;7.95;;;;;;;11.48;100.00;100184.47;5052477;28;20071;-48
2022/12/31 00:47:47;;;;;;;12.13;9.32;;;;;;;11.47;100.00;100193.91;5051781;28;20048;-45
2022/12/31 00:50:13;;;;;;;14.85;9.43;;;;;;;11.46;100.00;100197.31;5052320;28;20021;-49
2022/12/31 00:52:38;;;;;;;11.68;8.65;;;;;;;11.48;100.00;100185.31;5052379;28;20029;-47
2022/12/31 00:55:03;;;;;;;14.80;8.82;;;;;;;11.46;100.00;100187.00;5051903;28;20533;-49
2022/12/31 00:57:29;;;;;;;15.52;9.43;;;;;;;11.48;100.00;100180.16;5052291;28;20032;-49
2022/12/31 00:59:54;;;;;;;13.45;8.48;;;;;;;11.51;100.00;100189.66;5052133;28;20048;-48
2022/12/31 01:02:19;;;;;;;14.43;7.85;;;;;;;11.51;100.00;100182.75;5051783;28;20066;-48
2022/12/31 01:04:45;;;;;;;9.55;7.22;;;;;;;11.51;100.00;100184.50;5052188;28;20033;-48
2022/12/31 01:07:10;;;;;;;10.20;6.75;;;;;;;11.50;100.00;100163.00;5052383;28;20465;-49
2022/12/31 01:09:35;;;;;;;13.48;6.55;;;;;;;11.50;100.00;100172.44;5051432;28;20152;-49
2022/12/31 01:12:01;;;;;;;13.30;5.78;;;;;;;11.49;100.00;100187.06;5052250;28;20480;-50
2022/12/31 01:14:26;;;;;;;9.68;5.68;;;;;;;11.49;100.00;100168.09;5052331;28;20074;-50
2022/12/31 01:16:52;;;;;;;10.82;5.15;;;;;;;11.47;100.00;100157.75;5055090;28;20021;-47
2022/12/31 01:19:21;;;;;;;7.25;4.63;;;;;;;11.47;100.00;100152.59;5056191;28;20021;-49
2022/12/31 01:21:47;;;;;;;7.28;4.65;;;;;;;11.46;100.00;100156.03;5055788;28;20050;-49
2022/12/31 01:24:14;;;;;;;6.03;3.97;;;;;;;11.44;100.00;100156.84;5055222;28;20028;-51
2022/12/31 01:26:40;;;;;;;6.28;4.00;;;;;;;11.45;100.00;100169.78;5055740;28;20140;-50
2022/12/31 01:29:06;;;;;;;7.40;4.40;;;;;;;11.43;100.00;100176.63;5055749;28;20032;-49
2022/12/31 01:31:33;;;;;;;7.15;3.92;;;;;;;11.42;100.00;100172.31;5054658;28;20512;-50
2022/12/31 01:33:59;;;;;;;6.45;3.67;;;;;;;11.40;100.00;100184.34;5055949;28;20071;-49
2022/12/31 01:36:26;;;;;;;6.43;4.13;;;;;;;11.39;100.00;100176.56;5055806;28;20059;-50
2022/12/31 01:38:53;;;;;;;7.40;3.80;;;;;;;11.36;100.00;100185.13;5054686;28;20025;-49
2022/12/31 01:41:21;;;;;;;30.83;17.98;;;;;;;11.35;100.00;100188.56;5055513;28;20025;-50
2022/12/31 01:43:48;;;;;;;11.05;5.72;;;;;;;11.32;100.00;100185.91;5055410;28;20036;-50
2022/12/31 01:46:25;;;;;;;49.95;24.77;;;;;;;11.31;100.00;100186.75;5054955;28;20044;-50
2022/12/31 01:48:55;;;;;;;7.85;4.57;;;;;;;11.29;100.00;100188.47;5055347;28;20025;-49
2022/12/31 01:51:21;;;;;;;14.57;7.47;;;;;;;11.26;100.00;100190.97;5054782;28;20036;-49
2022/12/31 01:53:47;;;;;;;7.72;4.55;;;;;;;11.25;100.00;100212.47;5055097;28;20021;-50
2022/12/31 01:56:13;;;;;;;9.77;4.88;;;;;;;11.23;100.00;100240.78;5055131;28;20503;-50
2022/12/31 01:58:44;;;;;;;7.65;3.75;;;;;;;11.22;100.00;100262.31;5054383;28;20029;-50
2022/12/31 02:01:16;;;;;;;13.98;5.25;;;;;;;11.22;100.00;100259.72;5055063;28;20434;-50
2022/12/31 02:03:42;;;;;;;11.93;6.18;;;;;;;11.23;100.00;100260.56;5054953;28;20025;-49
2022/12/31 02:06:21;;;;;;;17.55;8.50;;;;;;;11.24;100.00;100208.16;5054305;28;20052;-50
2022/12/31 02:08:47;;;;;;;6.18;3.13;;;;;;;11.22;100.00;100196.94;5054874;28;20059;-49
2022/12/31 02:11:33;;;;;;;24.00;12.02;;;;;;;11.22;100.00;100212.41;5055259;28;20056;-49
2022/12/31 02:14:03;;;;;;;8.77;3.95;;;;;;;11.21;100.00;100211.53;5054432;28;20032;-49
2022/12/31 02:17:00;;;;;;;5.47;3.30;;;;;;;11.20;100.00;100215.81;5054829;28;20029;-49
2022/12/31 02:19:44;;;;;;;7.80;4.10;;;;;;;11.22;100.00;100226.19;5051025;28;20068;-49
2022/12/31 02:22:40;;;;;;;6.55;3.80;;;;;;;11.23;100.00;100229.63;5055005;28;20040;-50
2022/12/31 02:25:24;;;;;;;8.35;5.22;;;;;;;11.22;100.00;100243.34;5054897;28;20037;-47
2022/12/31 02:28:12;;;;;;;7.53;4.93;;;;;;;11.18;100.00;100250.16;5053274;28;20033;-47
2022/12/31 02:30:41;;;;;;;9.15;5.80;;;;;;;11.16;100.00;100252.72;5054535;28;20035;-46
2022/12/31 02:33:26;;;;;;;41.05;18.10;;;;;;;11.14;100.00;100251.84;5054559;28;20400;-50
2022/12/31 02:35:57;;;;;;;16.05;8.68;;;;;;;11.16;100.00;100259.59;5053929;28;20037;-50
2022/12/31 02:38:26;;;;;;;11.07;6.40;;;;;;;11.12;100.00;100258.69;5054753;28;20144;-49
2022/12/31 02:40:55;;;;;;;8.98;6.43;;;;;;;11.12;100.00;100253.50;5053614;28;20020;-50
2022/12/31 02:43:21;;;;;;;8.65;5.90;;;;;;;11.09;100.00;100250.91;5054536;28;20041;-49
2022/12/31 02:45:52;;;;;;;6.47;4.53;;;;;;;11.03;100.00;100253.34;5054019;28;20107;-50
2022/12/31 02:48:38;;;;;;;13.30;6.15;;;;;;;10.99;100.00;100256.72;5053716;28;20037;-47
2022/12/31 02:51:27;;;;;;;33.78;13.00;;;;;;;10.94;100.00;100260.94;5054451;28;20036;-49
2022/12/31 02:54:11;;;;;;;8.75;4.40;;;;;;;10.86;100.00;100253.91;5054222;28;20104;-49
2022/12/31 02:56:52;;;;;;;37.35;16.15;;;;;;;10.81;100.00;100246.94;5053068;28;20029;-49
2022/12/31 03:02:19;;;;;;;28.60;13.02;;;;;;;10.71;100.00;100236.44;5053513;28;20140;-50
2022/12/31 03:04:50;;;;;;;5.05;3.65;;;;;;;10.70;100.00;100246.72;5053611;28;20033;-49
2022/12/31 03:07:21;;;;;;;7.85;4.35;;;;;;;10.68;100.00;100249.28;5054207;28;20036;-49
2022/12/31 03:09:47;;;;;;;108.13;43.20;;;;;;;10.67;100.00;100238.94;5053027;28;20025;-47
2022/12/31 03:14:58;;;;;;;17.80;8.77;;;;;;;10.64;100.00;100228.56;5054265;28;20102;-49
2022/12/31 03:17:23;;;;;;;59.08;29.38;;;;;;;10.63;100.00;100224.25;5052944;28;20053;-49
2022/12/31 03:22:36;;;;;;;10.25;6.10;;;;;;;10.63;100.00;100226.84;5052890;28;20059;-46
2022/12/31 03:27:53;;;;;;;31.10;18.60;;;;;;;10.65;100.00;100210.56;5053885;28;20090;-47
2022/12/31 03:30:20;;;;;;;48.22;27.05;;;;;;;10.65;100.00;100209.69;5053038;28;20029;-49
2022/12/31 03:32:47;;;;;;;19.13;11.93;;;;;;;10.66;100.00;100216.56;5053395;28;20025;-49
2022/12/31 03:35:14;;;;;;;21.92;14.55;;;;;;;10.68;100.00;100209.75;5053385;28;20021;-49
2022/12/31 03:37:40;;;;;;;21.88;14.15;;;;;;;10.68;100.00;100208.03;5052442;28;20025;-49
2022/12/31 03:40:07;;;;;;;23.02;14.75;;;;;;;10.69;100.00;100196.00;5052582;28;20590;-49
2022/12/31 03:42:33;;;;;;;17.13;11.20;;;;;;;10.71;100.00;100195.19;5052802;28;20037;-49
2022/12/31 03:44:58;;;;;;;20.40;11.95;;;;;;;10.73;100.00;100192.66;5052743;28;20017;-50
2022/12/31 03:47:24;;;;;;;16.55;9.38;;;;;;;10.75;100.00;100190.97;5053500;28;20076;-49
2022/12/31 03:49:49;;;;;;;35.70;21.63;;;;;;;10.79;100.00;100194.47;5053045;28;20057;-49
2022/12/31 03:52:14;;;;;;;16.25;9.13;;;;;;;10.80;100.00;100194.50;5052523;28;20491;-49
2022/12/31 03:54:40;;;;;;;16.50;10.73;;;;;;;10.80;100.00;100184.19;5052752;28;20436;-48
2022/12/31 03:57:05;;;;;;;21.42;12.52;;;;;;;10.81;100.00;100188.50;5053022;28;20033;-46
2022/12/31 03:59:30;;;;;;;21.35;12.63;;;;;;;10.80;100.00;100183.34;5051988;28;20021;-48
2022/12/31 04:01:56;;;;;;;25.23;15.75;;;;;;;10.82;100.00;100187.69;5053166;28;20396;-50
2022/12/31 04:04:21;;;;;;;18.38;11.02;;;;;;;10.84;100.00;100188.56;5053073;28;20017;-46
2022/12/31 04:06:47;;;;;;;28.92;18.45;;;;;;;10.84;100.00;100185.97;5051994;28;20082;-45
2022/12/31 04:09:12;;;;;;;14.65;9.70;;;;;;;10.83;100.00;100199.72;5052900;28;20025;-50
2022/12/31 04:11:37;;;;;;;17.33;10.50;;;;;;;10.84;100.00;100198.88;5052605;28;20118;-49
2022/12/31 04:14:03;;;;;;;16.13;10.23;;;;;;;10.84;100.00;100187.69;5052261;28;20029;-48
2022/12/31 04:16:28;;;;;;;13.95;9.15;;;;;;;10.84;100.00;100195.44;5052693;28;20072;-47
2022/12/31 04:18:53;;;;;;;11.57;6.05;;;;;;;10.84;100.00;100196.28;5052078;28;20391;-50
2022/12/31 04:21:18;;;;;;;11.52;5.50;;;;;;;10.84;100.00;100192.84;5052842;28;20477;-49
2022/12/31 04:23:44;;;;;;;9.80;6.35;;;;;;;10.89;100.00;100195.53;5052686;28;20024;-48
2022/12/31 04:26:09;;;;;;;9.43;5.93;;;;;;;10.84;100.00;100187.69;5052049;28;20056;-46
2022/12/31 04:28:34;;;;;;;10.45;5.97;;;;;;;10.82;100.00;100189.38;5052613;28;20021;-49
2022/12/31 04:30:59;;;;;;;10.15;5.65;;;;;;;10.78;100.00;100192.72;5052730;28;20043;-46
2022/12/31 04:33:25;;;;;;;10.48;5.22;;;;;;;10.79;100.00;100192.75;5052012;28;20040;-49
2022/12/31 04:35:50;;;;;;;8.88;4.82;;;;;;;10.74;100.00;100184.06;5052368;28;20112;-50
2022/12/31 04:38:15;;;;;;;9.40;5.65;;;;;;;10.73;100.00;100177.22;5052725;28;20477;-50
2022/12/31 04:41:15;;;;;;;15.43;9.02;;;;;;;10.71;100.00;100168.56;5051500;28;20056;-47
2022/12/31 04:43:26;;;;;;;14.93;8.50;;;;;;;10.64;100.00;100161.53;5052410;28;20040;-49
2022/12/31 04:45:51;;;;;;;15.98;8.65;;;;;;;10.55;100.00;100193.19;5052486;28;20133;-47
2022/12/31 04:48:16;;;;;;;14.93;8.57;;;;;;;10.51;100.00;100194.84;5051869;28;20361;-48
2022/12/31 04:50:42;;;;;;;14.88;9.30;;;;;;;10.48;100.00;100181.91;5053728;28;20027;-49
2022/12/31 04:53:07;;;;;;;14.98;8.63;;;;;;;10.53;100.00;100180.28;5056379;28;20431;-50
2022/12/31 04:55:32;;;;;;;14.80;6.43;;;;;;;10.76;100.00;100182.41;5055403;28;20115;-48
2022/12/31 04:57:58;;;;;;;16.30;7.95;;;;;;;10.92;100.00;100185.25;5056336;28;20032;-49
2022/12/31 05:00:23;;;;;;;11.38;5.72;;;;;;;11.11;100.00;100200.19;5056305;28;20060;-49
2022/12/31 05:02:48;;;;;;;17.95;6.05;;;;;;;11.23;100.00;100198.66;5055257;28;20033;-49
2022/12/31 05:05:13;;;;;;;13.93;6.25;;;;;;;11.30;100.00;100185.03;5056472;28;20079;-50
2022/12/31 05:07:39;;;;;;;14.55;6.07;;;;;;;11.38;100.00;100198.06;5056097;28;20108;-49
2022/12/31 05:10:05;;;;;;;16.67;5.82;;;;;;;11.44;100.00;100224.81;5055434;28;20025;-49
2022/12/31 05:12:30;;;;;;;15.07;5.53;;;;;;;11.51;100.00;100230.94;5055973;28;20035;-50
2022/12/31 05:14:55;;;;;;;13.82;4.60;;;;;;;11.56;100.00;100221.56;5056304;28;20045;-49
2022/12/31 05:17:20;;;;;;;13.45;4.57;;;;;;;11.65;100.00;100229.44;5055496;28;20055;-48
2022/12/31 05:19:46;;;;;;;11.48;4.60;;;;;;;11.63;100.00;100215.66;5055726;28;20033;-46
2022/12/31 05:22:29;;;;;;;10.57;4.00;;;;;;;11.72;100.00;100225.22;5055108;28;20083;-49
2022/12/31 05:24:57;;;;;;;10.80;4.05;;;;;;;11.77;100.00;100226.16;5056207;28;20036;-49
2022/12/31 05:27:23;;;;;;;;;;;;;;;11.79;100.00;100229.66;5056395;28;20067;-48
2022/12/31 05:29:48;;;;;;;12.77;4.78;;;;;;;11.72;100.00;100225.22;5054937;28;20323;-48
2022/12/31 05:32:13;;;;;;;13.35;4.47;;;;;;;11.71;100.00;100228.69;5055891;28;20032;-47
2022/12/31 05:34:38;;;;;;;8.43;4.35;;;;;;;11.72;100.00;100229.53;5055387;28;20419;-49
2022/12/31 05:37:04;;;;;;;12.50;5.25;;;;;;;11.70;100.00;100237.25;5054788;28;20040;-49
2022/12/31 05:39:29;;;;;;;17.25;8.73;;;;;;;11.70;100.00;100247.59;5055600;28;20025;-49
2022/12/31 05:41:54;;;;;;;11.00;5.32;;;;;;;11.74;100.00;100233.88;5055695;28;20508;-49
2022/12/31 05:44:19;;;;;;;12.30;4.45;;;;;;;11.88;100.00;100234.09;5054883;28;20033;-49
2022/12/31 05:46:46;;;;;;;15.30;4.45;;;;;;;11.96;100.00;100241.97;5055912;28;20494;-46
2022/12/31 05:49:11;;;;;;;15.05;3.70;;;;;;;12.22;100.00;100236.28;5055511;28;20021;-49
2022/12/31 05:51:37;;;;;;;16.85;3.58;;;;;;;12.38;100.00;100227.00;5054285;28;20530;-48
2022/12/31 05:54:02;;;;;;;9.27;2.58;;;;;;;12.46;100.00;100236.59;5055622;28;20028;-49
2022/12/31 05:56:28;;;;;;;10.60;2.33;;;;;;;12.55;100.00;100235.84;5055242;28;20060;-47
2022/12/31 05:58:53;;;;;;;11.35;2.75;;;;;;;12.58;100.00;100229.84;5054892;28;20060;-48
2022/12/31 06:01:18;;;;;;;7.70;2.08;;;;;;;12.61;100.00;100227.28;5054874;28;20076;-48
2022/12/31 06:03:44;;;;;;;12.20;2.10;;;;;;;12.71;100.00;100226.53;5054165;28;20025;-48
2022/12/31 06:06:09;;;;;;;19.52;4.55;;;;;;;12.77;100.00;100228.31;5054290;28;20029;-48
2022/12/31 06:08:35;;;;;;;21.42;4.45;;;;;;;12.82;100.00;100217.19;5055061;28;20487;-48
2022/12/31 06:11:00;;;;;;;12.32;2.63;;;;;;;12.96;100.00;100250.94;5055218;28;20025;-45
2022/12/31 06:13:25;;;;;;;7.30;1.70;;;;;;;12.96;100.00;100273.34;5054339;28;20094;-48
2022/12/31 06:15:50;;;;;;;6.03;1.60;;;;;;;12.96;100.00;100252.66;5054770;28;20067;-48
2022/12/31 06:18:16;;;;;;;16.08;4.32;;;;;;;12.95;100.00;100253.50;5054942;28;20029;-49
2022/12/31 06:20:41;;;;;;;20.67;6.55;;;;;;;13.01;100.00;100271.66;5053848;28;20043;-48
2022/12/31 06:23:06;;;;;;;7.68;2.03;;;;;;;12.97;100.00;100269.91;5054907;28;20032;-48
2022/12/31 06:25:34;;;;;;;11.77;3.28;;;;;;;12.82;100.00;100281.81;5053888;28;20025;-47
2022/12/31 06:27:59;;;;;;;50.75;15.35;;;;;;;12.92;100.00;100261.22;5054798;28;20025;-49
2022/12/31 06:30:24;;;;;;;20.83;6.70;;;;;;;12.88;100.00;100259.47;5054941;28;20050;-49
2022/12/31 06:32:50;;;;;;;44.10;14.73;;;;;;;13.01;100.00;100256.16;5053784;28;20024;-49
2022/12/31 06:35:15;;;;;;;169.95;49.55;;;;;;;13.21;100.00;100242.53;5054673;28;20027;-48
2022/12/31 06:37:40;;;;;;;102.18;30.83;;;;;;;13.37;100.00;100248.75;5054430;28;20499;-48
2022/12/31 06:40:06;;;;;;;32.95;9.63;;;;;;;13.60;100.00;100241.19;5053963;28;20041;-49
2022/12/31 06:42:32;;;;;;;83.32;24.15;;;;;;;13.71;100.00;100241.25;5054089;28;20044;-49
2022/12/31 06:44:57;;;;;;;7.15;2.03;;;;;;;13.91;100.00;100256.94;5054618;28;20017;-47
2022/12/31 06:47:23;;;;;;;12.43;5.25;;;;;;;14.09;100.00;100256.16;5053783;28;20025;-48
2022/12/31 06:49:49;;;;;;;18.75;7.63;;;;;;;14.23;100.00;100238.97;5054070;28;20033;-49
2022/12/31 06:52:14;;;;;;;7.25;1.95;;;;;;;14.28;100.00;100259.69;5054183;28;20078;-49
2022/12/31 06:54:40;;;;;;;16.85;6.40;;;;;;;14.34;100.00;100251.97;5053409;28;20036;-48
2022/12/31 06:57:08;;;;;;;6.22;1.40;;;;;;;14.34;100.00;100241.59;5054446;28;20480;-48
2022/12/31 06:59:33;;;;;;;7.65;1.63;;;;;;;14.41;100.00;100242.47;5053722;28;20021;-48
2022/12/31 07:02:17;;;;;;;7.18;2.50;;;;;;;14.42;100.00;100249.41;5053355;28;20017;-48
2022/12/31 07:05:07;;;;;;;10.23;3.70;;;;;;;14.42;100.00;100260.66;5054068;28;20033;-48
2022/12/31 07:07:41;;;;;;;12.88;3.35;;;;;;;14.43;100.00;100252.00;5053939;28;20033;-47
2022/12/31 07:10:19;;;;;;;6.32;1.70;;;;;;;14.39;100.00;100246.81;5054109;28;20029;-48
2022/12/31 07:13:01;;;;;;;10.32;3.00;;;;;;;14.41;100.00;100235.59;5053619;28;20029;-49
2022/12/31 07:15:29;;;;;;;20.02;5.25;;;;;;;14.41;100.00;100251.13;5053356;28;20028;-49
2022/12/31 07:18:12;;;;;;;7.72;1.95;;;;;;;14.45;100.00;100260.66;5053971;28;20035;-48
2022/12/31 07:20:38;;;;;;;11.90;3.08;;;;;;;14.48;100.00;100239.06;5053445;28;20032;-45
2022/12/31 07:23:03;;;;;;;10.05;2.58;;;;;;;14.52;100.00;100255.50;5052772;28;20029;-45
2022/12/31 07:25:30;;;;;;;15.65;4.93;;;;;;;14.58;100.00;100260.72;5053288;28;20021;-48
2022/12/31 07:28:09;;;;;;;18.38;7.70;;;;;;;14.60;100.00;100270.25;5053583;28;20424;-50
2022/12/31 07:30:47;;;;;;;7.88;1.60;;;;;;;14.58;100.00;100271.94;5052563;28;20480;-50
2022/12/31 07:33:42;;;;;;;12.43;3.80;;;;;;;14.60;100.00;100272.84;5053552;28;20036;-49
2022/12/31 07:36:28;;;;;;;14.23;4.13;;;;;;;14.63;100.00;100271.97;5052816;28;20032;-49
2022/12/31 07:39:06;;;;;;;9.18;2.60;;;;;;;14.59;100.00;100270.22;5053592;28;20065;-48
2022/12/31 07:41:43;;;;;;;16.08;6.30;;;;;;;14.54;100.00;100278.00;5052994;28;20020;-49
2022/12/31 07:44:23;;;;;;;42.00;21.33;;;;;;;14.45;100.00;100276.22;5052491;28;20507;-46
2022/12/31 07:47:00;;;;;;;13.50;4.10;;;;;;;14.50;100.00;100268.47;5052990;28;20029;-47
2022/12/31 07:49:27;;;;;;;14.80;3.13;;;;;;;14.49;100.00;100277.94;5053077;28;20423;-49
2022/12/31 07:51:53;;;;;;;25.95;11.40;;;;;;;14.52;100.00;100260.69;5052543;28;20150;-48
2022/12/31 07:54:19;;;;;;;17.85;6.07;;;;;;;14.49;100.00;100261.53;5052928;28;20108;-49
2022/12/31 07:56:45;;;;;;;22.60;5.25;;;;;;;14.32;100.00;100277.03;5052694;28;20017;-49
2022/12/31 07:59:17;;;;;;;7.93;2.50;;;;;;;14.10;100.00;100276.91;5052462;28;20029;-49
2022/12/31 08:02:00;;;;;;;12.38;3.60;;;;;;;13.99;100.00;100266.50;5052473;28;20179;-47
2022/12/31 08:04:58;;;;;;;18.83;7.18;;;;;;;13.93;100.00;100257.78;5052408;28;20033;-48
2022/12/31 08:07:32;;;;;;;32.80;12.73;;;;;;;13.86;100.00;100275.00;5052616;28;20044;-48
2022/12/31 08:10:12;;;;;;;13.18;2.45;;;;;;;13.77;100.00;100293.94;5052907;28;20057;-50
2022/12/31 08:12:39;;;;;;;12.18;3.05;;;;;;;13.74;100.00;100280.97;5051993;28;20033;-48
2022/12/31 08:15:16;;;;;;;8.35;2.35;;;;;;;13.71;100.00;100288.75;5052818;28;20022;-48
2022/12/31 08:17:42;;;;;;;15.90;2.97;;;;;;;13.66;100.00;100304.22;5052620;28;20028;-48
2022/12/31 08:20:13;;;;;;;10.68;2.00;;;;;;;13.71;100.00;100322.41;5052117;28;20021;-49
2022/12/31 08:22:48;;;;;;;11.13;2.35;;;;;;;13.69;100.00;100331.03;5052560;28;20029;-49
2022/12/31 08:25:17;;;;;;;19.90;6.53;;;;;;;13.69;100.00;100325.84;5051500;28;20029;-50
2022/12/31 08:28:05;;;;;;;9.57;2.05;;;;;;;13.73;100.00;100346.56;5052345;28;20029;-45
2022/12/31 08:31:00;;;;;;;10.27;3.63;;;;;;;13.80;100.00;100361.31;5052609;28;20025;-49
2022/12/31 08:33:31;;;;;;;9.00;2.00;;;;;;;13.93;100.00;100351.94;5051954;28;20069;-46
2022/12/31 08:36:27;;;;;;;9.90;2.10;;;;;;;13.99;100.00;100374.41;5052621;28;20028;-50
2022/12/31 08:39:01;;;;;;;11.05;1.85;;;;;;;14.04;100.00;100383.09;5052610;28;20032;-50
2022/12/31 08:41:32;;;;;;;8.13;1.95;;;;;;;14.10;100.00;100372.78;5052378;28;20032;-49
2022/12/31 08:44:35;;;;;;;4.88;1.65;;;;;;;14.18;100.00;100390.97;5052592;28;20032;-49
2022/12/31 08:47:31;;;;;;;8.57;1.65;;;;;;;14.26;100.00;100429.91;5051887;28;20071;-48
2022/12/31 08:49:56;;;;;;;8.65;1.88;;;;;;;14.12;100.00;100407.34;5052646;28;20032;-49
2022/12/31 08:52:24;;;;;;;5.93;3.28;;;;;;;14.02;100.00;100415.91;5052621;28;20082;-48
2022/12/31 08:54:49;;;;;;;;;;;;;;;13.99;100.00;100428.81;5051796;28;20036;-45
2022/12/31 08:57:32;;;;;;;9.55;2.60;;;;;;;13.87;100.00;100427.00;5052595;28;19917;-48
2022/12/31 09:00:09;;;;;;;11.38;4.18;;;;;;;13.92;100.00;100434.81;5052410;28;20087;-47
2022/12/31 09:02:50;;;;;;;;;;;;;;;13.95;100.00;100445.19;5052694;28;20091;-49
2022/12/31 09:05:28;;;;;;;14.23;5.30;;;;;;;14.00;100.00;100449.56;5052264;28;19999;-49
2022/12/31 09:08:02;;;;;;;15.10;5.03;;;;;;;14.09;100.00;100458.28;5051632;28;20329;-48
2022/12/31 09:11:00;;;;;;;11.73;5.00;;;;;;;14.11;100.00;100456.56;5052121;28;20037;-48
2022/12/31 09:13:47;;;;;;;7.88;2.33;;;;;;;14.13;100.00;100460.91;5043354;28;20116;-48
2022/12/31 09:16:37;;;;;;;13.85;4.00;;;;;;;14.19;100.00;100465.28;5051800;28;20111;-47
2022/12/31 09:19:02;;;;;;;9.88;2.75;;;;;;;14.23;100.00;100476.53;5052504;28;20071;-48
2022/12/31 09:21:28;;;;;;;7.13;2.08;;;;;;;14.26;100.00;100481.75;5051348;28;20561;-46
2022/12/31 09:23:53;;;;;;;9.25;2.78;;;;;;;14.21;100.00;100506.78;5052152;28;20483;-50
2022/12/31 09:26:39;;;;;;;19.33;7.03;;;;;;;14.06;100.00;100495.41;5052062;28;20032;-50
2022/12/31 09:29:10;;;;;;;13.98;4.53;;;;;;;13.79;100.00;100517.59;5051604;28;20033;-47
2022/12/31 09:31:47;;;;;;;10.50;3.00;;;;;;;13.57;100.00;100511.28;5051902;28;20029;-50
2022/12/31 09:34:26;;;;;;;8.55;3.88;;;;;;;13.40;100.00;100518.84;5052200;28;20036;-44
2022/12/31 09:37:01;;;;;;;12.02;3.42;;;;;;;13.31;100.00;100518.69;5051061;28;20475;-47
2022/12/31 09:39:32;;;;;;;33.88;15.48;;;;;;;13.24;100.00;100511.69;5055886;28;20021;-48
2022/12/31 09:42:27;;;;;;;65.13;26.60;;;;;;;13.22;100.00;100514.28;5055640;28;20033;-46
2022/12/31 09:45:14;;;;;;;39.55;15.40;;;;;;;13.21;100.00;100516.81;5055688;28;20468;-48
2022/12/31 09:48:12;;;;;;;15.85;5.22;;;;;;;13.20;100.00;100520.28;5055205;28;20040;-46
2022/12/31 09:50:37;;;;;;;18.98;9.65;;;;;;;13.19;100.00;100514.22;5054382;28;20391;-48
2022/12/31 09:53:09;;;;;;;26.90;10.82;;;;;;;13.21;100.00;100522.00;5055403;28;20536;-47
2022/12/31 09:56:01;;;;;;;31.25;11.57;;;;;;;13.23;100.00;100522.91;5055307;28;20035;-45
2022/12/31 09:58:38;;;;;;;19.83;6.13;;;;;;;13.33;100.00;100517.00;5054762;28;20100;-45
2022/12/31 10:01:26;;;;;;;16.80;4.78;;;;;;;13.36;100.00;100519.59;5055173;28;20041;-46
2022/12/31 10:04:18;;;;;;;25.73;8.82;;;;;;;13.39;100.00;100524.00;5054390;28;20032;-48
2022/12/31 10:07:08;;;;;;;19.88;8.52;;;;;;;13.41;100.00;100517.97;5054947;28;20078;-49
2022/12/31 10:10:00;;;;;;;23.00;9.60;;;;;;;13.44;100.00;100520.63;5054706;28;20083;-49
2022/12/31 10:12:38;;;;;;;18.33;6.78;;;;;;;13.47;100.00;100523.25;5054554;28;20033;-48
2022/12/31 10:15:12;;;;;;;24.75;7.47;;;;;;;13.57;100.00;100528.53;5055099;28;20047;-49
2022/12/31 10:18:16;;;;;;;21.42;8.90;;;;;;;13.64;100.00;100517.41;5053982;28;20036;-49
2022/12/31 10:21:19;;;;;;;19.88;6.72;;;;;;;13.60;100.00;100521.66;5054848;28;20021;-49
2022/12/31 10:23:57;;;;;;;15.25;5.10;;;;;;;13.59;100.00;100525.09;5054558;28;20033;-48
2022/12/31 10:26:51;;;;;;;20.75;7.82;;;;;;;13.69;100.00;100518.31;5054051;28;20104;-46
2022/12/31 10:29:41;;;;;;;17.10;5.78;;;;;;;13.72;100.00;100513.16;5054987;28;20059;-49
2022/12/31 10:32:27;;;;;;;23.15;6.97;;;;;;;13.74;100.00;100501.13;5054102;28;20037;-48
2022/12/31 10:35:34;;;;;;;28.30;8.97;;;;;;;13.77;100.00;100488.19;5054658;28;20494;-49
2022/12/31 10:38:24;;;;;;;22.98;6.82;;;;;;;13.83;100.00;100495.19;5048413;28;20094;-49
2022/12/31 10:41:23;;;;;;;17.27;5.82;;;;;;;13.94;100.00;100487.50;5053619;28;20049;-48
2022/12/31 10:44:17;;;;;;;19.88;6.60;;;;;;;13.99;100.00;100478.94;5054317;28;20043;-48
2022/12/31 10:47:03;;;;;;;18.90;4.43;;;;;;;14.12;100.00;100487.66;5053519;28;20040;-49
2022/12/31 10:49:50;;;;;;;16.98;4.00;;;;;;;14.16;100.00;100491.16;5053575;28;20025;-48
2022/12/31 10:52:27;;;;;;;14.40;3.70;;;;;;;14.27;100.00;100496.47;5054536;28;20033;-49
2022/12/31 10:54:55;;;;;;;19.10;4.45;;;;;;;14.28;100.00;100511.13;5053759;28;20033;-50
2022/12/31 10:57:48;;;;;;;15.77;4.07;;;;;;;14.33;100.00;100512.94;5054175;28;20475;-47
2022/12/31 11:00:18;;;;;;;9.52;2.70;;;;;;;14.35;100.00;100505.16;5053135;28;20499;-47
2022/12/31 11:02:46;;;;;;;24.13;8.15;;;;;;;14.41;100.00;100499.16;5053897;28;20037;-49
2022/12/31 11:05:33;;;;;;;53.85;17.70;;;;;;;14.45;100.00;100519.94;5054159;28;20044;-47
2022/12/31 11:08:29;;;;;;;27.42;8.77;;;;;;;14.47;100.00;100510.47;5053169;28;20021;-47
2022/12/31 11:11:10;;;;;;;26.75;6.85;;;;;;;14.54;100.00;100516.56;5054123;28;20044;-49
2022/12/31 11:13:52;;;;;;;132.43;39.50;;;;;;;14.60;100.00;100532.19;5053647;28;20086;-49
2022/12/31 11:16:32;;;;;;;27.90;8.40;;;;;;;14.64;100.00;100530.47;5053832;28;20039;-47
2022/12/31 11:19:16;;;;;;;23.75;7.82;;;;;;;14.63;100.00;100520.97;5054034;28;20028;-49
2022/12/31 11:22:04;;;;;;;21.92;7.18;;;;;;;14.70;100.00;100520.16;5052738;28;20029;-49
2022/12/31 11:24:56;;;;;;;17.35;5.35;;;;;;;14.81;100.00;100517.66;5053477;28;20028;-50
2022/12/31 11:27:39;;;;;;;20.67;5.95;;;;;;;14.87;100.00;100522.00;5053612;28;20372;-49
2022/12/31 11:30:44;;;;;;;20.98;6.30;;;;;;;14.89;100.00;100526.34;5053140;28;20079;-50
2022/12/31 11:33:44;;;;;;;21.35;4.35;;;;;;;14.97;100.00;100529.00;5053434;28;20029;-48
2022/12/31 11:36:21;;;;;;;33.03;11.65;;;;;;;14.96;100.00;100545.41;5052895;28;20029;-49
2022/12/31 11:39:01;;;;;;;25.73;7.05;;;;;;;14.96;100.00;100550.59;5053201;28;20051;-46
2022/12/31 11:41:34;;;;;;;16.17;3.40;;;;;;;14.92;99.74;100538.47;5053359;28;20032;-48
2022/12/31 11:44:16;;;;;;;18.58;4.95;;;;;;;14.86;100.00;100541.03;5052710;28;20061;-49
2022/12/31 11:47:03;;;;;;;25.50;5.95;;;;;;;14.94;98.12;100549.75;5052883;28;20021;-48